createdAt,value
2022-11-29T00:01:40.902Z,90.88
2022-11-29T00:03:42.408Z,90.84
2022-11-29T00:05:43.780Z,90.29
2022-11-29T00:07:45.469Z,90.87
2022-11-29T00:09:46.906Z,91.09
2022-11-29T00:12:06.890Z,90.42
2022-11-29T00:14:10.904Z,90.38
2022-11-29T00:16:12.511Z,90.63
2022-11-29T00:18:13.969Z,90.85
2022-11-29T00:20:15.480Z,90.92
2022-11-29T00:22:16.975Z,90.77
2022-11-29T00:24:18.631Z,90.82
2022-11-29T00:26:20.231Z,90.71
2022-11-29T00:28:21.654Z,90.94
2022-11-29T00:30:23.141Z,90.43
2022-11-29T00:32:24.655Z,91.84
2022-11-29T00:34:26.224Z,91.04
2022-11-29T00:36:28.140Z,90.87
2022-11-29T00:38:29.584Z,90.84
2022-11-29T00:40:30.956Z,90.83
2022-11-29T00:42:32.320Z,90.75
2022-11-29T00:44:33.720Z,91.00
2022-11-29T00:46:35.091Z,90.96
2022-11-29T00:48:37.340Z,91.10
2022-11-29T00:50:38.739Z,91.11
2022-11-29T00:52:40.110Z,90.78
2022-11-29T00:54:41.849Z,90.83
2022-11-29T00:56:43.789Z,91.22
2022-11-29T00:58:45.205Z,91.16
2022-11-29T01:00:47.671Z,91.06
2022-11-29T01:02:49.188Z,91.30
2022-11-29T01:04:50.609Z,90.40
2022-11-29T01:06:52.960Z,91.02
2022-11-29T01:08:54.343Z,90.62
2022-11-29T01:11:10.536Z,90.94
2022-11-29T01:13:11.920Z,90.69
2022-11-29T01:15:13.327Z,90.77
2022-11-29T01:17:14.729Z,91.26
2022-11-29T01:19:16.169Z,91.89
2022-11-29T01:21:20.855Z,91.05
2022-11-29T01:23:22.237Z,91.44
2022-11-29T01:25:23.646Z,91.15
2022-11-29T01:27:25.147Z,91.76
2022-11-29T01:29:26.525Z,91.65
2022-11-29T01:31:31.466Z,91.29
2022-11-29T01:33:33.616Z,91.26
2022-11-29T01:35:34.970Z,91.54
2022-11-29T01:37:36.409Z,91.18
2022-11-29T01:39:37.861Z,91.20
2022-11-29T01:41:39.468Z,91.15
2022-11-29T01:44:04.742Z,91.14
2022-11-29T01:46:06.117Z,90.80
2022-11-29T01:48:07.661Z,91.21
2022-11-29T01:50:09.873Z,91.35
2022-11-29T01:52:16.771Z,91.02
2022-11-29T01:54:18.294Z,91.16
2022-11-29T01:56:20.399Z,91.54
2022-11-29T01:58:22.407Z,92.13
2022-11-29T02:00:23.793Z,92.11
2022-11-29T02:02:33.337Z,91.35
2022-11-29T02:04:36.990Z,91.30
2022-11-29T02:06:39.508Z,91.19
2022-11-29T02:08:43.920Z,92.01
2022-11-29T02:11:04.080Z,91.43
2022-11-29T02:13:26.898Z,91.58
2022-11-29T02:15:41.101Z,91.89
2022-11-29T02:18:10.392Z,91.68
2022-11-29T02:20:56.345Z,91.50
2022-11-29T02:23:14.717Z,91.49
2022-11-29T02:25:42.125Z,91.51
2022-11-29T02:28:15.484Z,91.35
2022-11-29T02:30:23.998Z,91.51
2022-11-29T02:32:52.884Z,91.51
2022-11-29T02:35:24.196Z,92.37
2022-11-29T02:37:56.316Z,91.96
2022-11-29T02:40:35.729Z,91.64
2022-11-29T02:42:58.261Z,91.14
2022-11-29T02:45:21.643Z,91.46
2022-11-29T02:47:43.956Z,91.35
2022-11-29T02:50:12.500Z,91.67
2022-11-29T02:52:30.842Z,91.37
2022-11-29T02:54:37.079Z,91.63
2022-11-29T02:56:53.829Z,91.18
2022-11-29T02:59:25.959Z,91.26
2022-11-29T03:01:40.216Z,91.31
2022-11-29T03:03:56.309Z,91.01
2022-11-29T03:06:04.867Z,91.18
2022-11-29T03:08:12.397Z,91.28
2022-11-29T03:10:39.139Z,91.13
2022-11-29T03:12:45.264Z,91.58
2022-11-29T03:15:05.204Z,91.19
2022-11-29T03:17:43.769Z,91.04
2022-11-29T03:20:07.808Z,91.09
2022-11-29T03:22:11.961Z,90.70
2022-11-29T03:24:23.994Z,91.06
2022-11-29T03:26:54.980Z,90.93
2022-11-29T03:29:09.334Z,91.29
2022-11-29T03:31:18.998Z,91.23
2022-11-29T03:33:30.981Z,90.99
2022-11-29T03:35:41.650Z,90.99
2022-11-29T03:37:55.303Z,91.19
2022-11-29T03:40:03.157Z,90.72
2022-11-29T03:42:11.065Z,90.97
2022-11-29T03:44:20.080Z,90.88
2022-11-29T03:46:33.573Z,91.07
2022-11-29T03:48:44.940Z,90.55
2022-11-29T03:50:54.120Z,90.65
2022-11-29T03:53:01.795Z,90.60
2022-11-29T03:55:09.311Z,90.70
2022-11-29T03:57:16.053Z,90.57
2022-11-29T03:59:36.008Z,91.07
2022-11-29T04:02:04.649Z,91.19
2022-11-29T04:04:35.755Z,91.57
2022-11-29T04:06:52.150Z,91.20
2022-11-29T04:09:31.180Z,91.95
2022-11-29T04:11:54.616Z,91.81
2022-11-29T04:14:17.599Z,91.14
2022-11-29T04:16:46.712Z,91.45
2022-11-29T04:19:15.900Z,92.01
2022-11-29T04:21:24.190Z,91.98
2022-11-29T04:24:13.518Z,91.85
2022-11-29T04:26:20.699Z,91.85
2022-11-29T04:28:40.381Z,91.42
2022-11-29T04:30:57.410Z,91.69
2022-11-29T04:33:39.587Z,91.59
2022-11-29T04:36:03.405Z,91.55
2022-11-29T04:38:41.205Z,91.34
2022-11-29T04:40:57.619Z,91.27
2022-11-29T04:43:10.950Z,91.62
2022-11-29T04:45:30.866Z,91.91
2022-11-29T04:47:52.751Z,92.07
2022-11-29T04:50:09.275Z,91.82
2022-11-29T04:52:32.219Z,92.00
2022-11-29T04:54:47.948Z,91.77
2022-11-29T04:56:54.939Z,91.54
2022-11-29T04:59:07.616Z,91.78
2022-11-29T05:01:39.912Z,91.63
2022-11-29T05:03:59.799Z,91.36
2022-11-29T05:06:23.166Z,91.62
2022-11-29T05:08:41.050Z,91.33
2022-11-29T05:11:01.151Z,91.16
2022-11-29T05:13:36.507Z,91.21
2022-11-29T05:15:59.123Z,91.54
2022-11-29T05:18:19.710Z,91.11
2022-11-29T05:21:02.963Z,91.16
2022-11-29T05:23:34.802Z,90.77
2022-11-29T05:25:55.238Z,91.17
2022-11-29T05:28:14.733Z,90.70
2022-11-29T05:30:18.020Z,90.77
2022-11-29T05:32:57.801Z,91.23
2022-11-29T05:35:17.170Z,90.82
2022-11-29T05:37:39.746Z,91.12
2022-11-29T05:40:07.512Z,90.94
2022-11-29T05:42:29.293Z,91.06
2022-11-29T05:44:39.592Z,90.50
2022-11-29T05:46:50.557Z,90.93
2022-11-29T05:49:04.664Z,90.27
2022-11-29T05:51:23.072Z,90.11
2022-11-29T05:53:30.744Z,90.08
2022-11-29T05:55:45.404Z,90.83
2022-11-29T05:57:55.569Z,90.09
2022-11-29T05:59:58.994Z,90.29
2022-11-29T06:02:06.256Z,90.09
2022-11-29T06:04:52.158Z,90.19
2022-11-29T06:07:16.093Z,90.00
2022-11-29T06:09:48.167Z,90.19
2022-11-29T06:11:55.115Z,90.79
2022-11-29T06:14:02.594Z,90.34
2022-11-29T06:16:27.081Z,90.85
2022-11-29T06:18:39.280Z,90.70
2022-11-29T06:20:51.931Z,90.28
2022-11-29T06:23:19.089Z,90.73
2022-11-29T06:25:53.223Z,90.80
2022-11-29T06:28:13.739Z,90.43
2022-11-29T06:30:20.169Z,90.67
2022-11-29T06:32:30.793Z,90.14
2022-11-29T06:35:02.350Z,90.60
2022-11-29T06:37:20.944Z,90.83
2022-11-29T06:39:22.816Z,90.69
2022-11-29T06:41:24.733Z,90.87
2022-11-29T06:43:26.568Z,90.37
2022-11-29T06:45:28.229Z,89.97
2022-11-29T06:48:03.520Z,90.01
2022-11-29T06:50:31.004Z,90.23
2022-11-29T06:52:58.334Z,90.49
2022-11-29T06:55:41.512Z,90.42
2022-11-29T06:57:57.647Z,90.53
2022-11-29T07:00:27.738Z,90.25
2022-11-29T07:02:39.649Z,90.35
2022-11-29T07:04:59.855Z,89.98
2022-11-29T07:07:01.319Z,89.93
2022-11-29T07:09:15.793Z,90.43
2022-11-29T07:11:17.410Z,90.23
2022-11-29T07:13:20.051Z,89.94
2022-11-29T07:15:23.059Z,89.89
2022-11-29T07:17:36.336Z,90.42
2022-11-29T07:19:56.224Z,90.27
2022-11-29T07:22:30.593Z,90.43
2022-11-29T07:24:49.902Z,90.33
2022-11-29T07:27:14.631Z,90.23
2022-11-29T07:29:29.345Z,90.23
2022-11-29T07:32:00.110Z,90.65
2022-11-29T07:34:14.862Z,89.38
2022-11-29T07:36:40.886Z,89.82
2022-11-29T07:38:51.446Z,89.82
2022-11-29T07:41:04.220Z,90.13
2022-11-29T07:43:21.649Z,90.21
2022-11-29T07:45:29.188Z,90.46
2022-11-29T07:47:35.454Z,90.33
2022-11-29T07:49:37.450Z,90.25
2022-11-29T07:51:38.875Z,89.71
2022-11-29T07:53:43.020Z,89.88
2022-11-29T07:55:45.491Z,89.16
2022-11-29T07:57:47.730Z,89.22
2022-11-29T07:59:49.135Z,89.78
2022-11-29T08:01:50.563Z,89.69
2022-11-29T08:03:52.022Z,89.65
2022-11-29T08:05:53.419Z,89.72
2022-11-29T08:07:55.875Z,89.25
2022-11-29T08:09:57.288Z,89.40
2022-11-29T08:11:58.698Z,89.69
2022-11-29T08:14:01.983Z,89.59
2022-11-29T08:16:03.658Z,90.10
2022-11-29T08:18:05.067Z,88.76
2022-11-29T08:20:08.137Z,89.12
2022-11-29T08:22:09.533Z,89.58
2022-11-29T08:24:10.935Z,89.12
2022-11-29T08:26:12.634Z,89.09
2022-11-29T08:28:14.234Z,89.25
2022-11-29T08:30:18.651Z,90.00
2022-11-29T08:32:20.100Z,89.64
2022-11-29T08:34:23.173Z,90.00
2022-11-29T08:36:24.600Z,89.50
2022-11-29T08:38:25.966Z,89.47
2022-11-29T08:40:27.520Z,89.33
2022-11-29T08:42:28.923Z,89.54
2022-11-29T08:44:30.285Z,89.55
2022-11-29T08:46:50.334Z,89.15
2022-11-29T08:48:51.738Z,89.35
2022-11-29T08:50:55.308Z,89.26
2022-11-29T08:53:16.825Z,88.77
2022-11-29T08:55:20.045Z,89.32
2022-11-29T08:59:44.817Z,88.65
2022-11-29T09:01:46.209Z,89.22
2022-11-29T09:03:59.394Z,90.05
2022-11-29T09:06:12.457Z,89.07
2022-11-29T09:08:14.169Z,88.65
2022-11-29T09:10:15.562Z,89.58
2022-11-29T09:12:17.218Z,89.46
2022-11-29T09:14:19.191Z,88.78
2022-11-29T09:16:25.274Z,88.12
2022-11-29T09:18:28.667Z,88.36
2022-11-29T09:20:30.045Z,88.24
2022-11-29T09:22:31.450Z,88.06
2022-11-29T09:24:34.081Z,87.80
2022-11-29T09:26:37.826Z,88.42
2022-11-29T09:28:39.295Z,88.84
2022-11-29T09:30:40.669Z,88.88
2022-11-29T09:32:42.042Z,88.45
2022-11-29T09:34:44.031Z,88.52
2022-11-29T09:36:45.665Z,88.64
2022-11-29T09:38:47.083Z,88.15
2022-11-29T09:40:53.638Z,88.13
2022-11-29T09:43:02.373Z,87.79
2022-11-29T09:45:20.461Z,88.83
2022-11-29T09:47:52.362Z,88.83
2022-11-29T09:50:25.524Z,88.64
2022-11-29T09:52:32.872Z,88.16
2022-11-29T09:54:54.397Z,88.03
2022-11-29T09:56:57.152Z,88.78
2022-11-29T09:59:11.780Z,87.67
2022-11-29T10:01:21.895Z,87.72
2022-11-29T10:03:29.236Z,87.61
2022-11-29T10:05:58.633Z,87.05
2022-11-29T10:08:13.719Z,87.56
2022-11-29T10:10:19.615Z,87.00
2022-11-29T10:12:39.495Z,87.20
2022-11-29T10:14:58.050Z,87.50
2022-11-29T10:17:19.467Z,87.28
2022-11-29T10:19:38.077Z,87.95
2022-11-29T10:21:43.644Z,86.84
2022-11-29T10:23:47.995Z,87.36
2022-11-29T10:25:53.041Z,86.99
2022-11-29T10:27:54.804Z,87.67
2022-11-29T10:29:59.134Z,86.94
2022-11-29T10:32:10.137Z,86.49
2022-11-29T10:34:24.014Z,86.37
2022-11-29T10:36:33.095Z,86.25
2022-11-29T10:38:34.708Z,86.23
2022-11-29T10:40:39.649Z,86.23
2022-11-29T10:42:50.269Z,86.92
2022-11-29T10:44:51.705Z,86.81
2022-11-29T10:46:54.334Z,86.18
2022-11-29T10:48:58.265Z,85.25
2022-11-29T10:51:01.423Z,85.21
2022-11-29T10:53:09.478Z,85.37
2022-11-29T10:55:14.650Z,85.51
2022-11-29T10:57:19.395Z,86.36
2022-11-29T10:59:26.722Z,84.81
2022-11-29T11:01:29.797Z,85.09
2022-11-29T11:03:36.398Z,86.32
2022-11-29T11:05:37.953Z,85.63
2022-11-29T11:07:39.471Z,85.22
2022-11-29T11:09:47.582Z,85.20
2022-11-29T11:11:55.621Z,85.63
2022-11-29T11:14:02.844Z,85.11
2022-11-29T11:16:24.372Z,85.25
2022-11-29T11:18:29.101Z,85.17
2022-11-29T11:20:33.307Z,85.07
2022-11-29T11:23:29.748Z,84.74
2022-11-29T11:25:38.889Z,85.11
2022-11-29T11:27:40.652Z,85.29
2022-11-29T11:29:44.514Z,85.28
2022-11-29T11:31:54.555Z,85.71
2022-11-29T11:33:55.935Z,84.86
2022-11-29T11:36:11.915Z,85.55
2022-11-29T11:38:17.744Z,85.22
2022-11-29T11:40:28.961Z,85.09
2022-11-29T11:42:38.650Z,85.38
2022-11-29T11:44:53.322Z,85.55
2022-11-29T11:46:55.123Z,86.05
2022-11-29T11:48:56.557Z,86.20
2022-11-29T11:51:00.897Z,85.90
2022-11-29T11:53:06.853Z,85.42
2022-11-29T11:55:26.640Z,85.37
2022-11-29T11:57:34.982Z,84.93
2022-11-29T11:59:36.783Z,85.32
2022-11-29T12:01:39.075Z,85.27
2022-11-29T12:03:57.512Z,85.86
2022-11-29T12:06:24.604Z,85.11
2022-11-29T12:08:28.571Z,85.19
2022-11-29T12:10:34.793Z,85.17
2022-11-29T12:12:41.159Z,84.79
2022-11-29T12:14:56.474Z,85.37
2022-11-29T12:17:49.060Z,85.47
2022-11-29T12:20:15.262Z,85.45
2022-11-29T12:22:23.394Z,85.51
2022-11-29T12:24:28.623Z,85.43
2022-11-29T12:26:57.088Z,84.92
2022-11-29T12:28:54.951Z,84.83
2022-11-29T12:31:14.685Z,84.95
2022-11-29T12:33:39.018Z,84.16
2022-11-29T12:36:02.109Z,84.16
2022-11-29T12:38:21.696Z,83.55
2022-11-29T12:40:29.196Z,83.79
2022-11-29T12:43:14.175Z,84.01
2022-11-29T12:45:20.844Z,84.31
2022-11-29T12:47:51.930Z,84.77
2022-11-29T12:50:25.829Z,83.99
2022-11-29T12:52:36.819Z,83.94
2022-11-29T12:54:38.303Z,84.26
2022-11-29T12:56:44.272Z,83.52
2022-11-29T12:59:13.148Z,83.84
2022-11-29T13:01:49.708Z,83.67
2022-11-29T13:04:13.945Z,83.64
2022-11-29T13:06:58.594Z,84.40
2022-11-29T13:09:05.737Z,84.36
2022-11-29T13:12:01.136Z,84.57
2022-11-29T13:14:42.050Z,83.94
2022-11-29T13:16:49.441Z,84.37
2022-11-29T13:19:01.608Z,83.72
2022-11-29T13:21:14.920Z,83.46
2022-11-29T13:24:07.329Z,84.30
2022-11-29T13:26:09.409Z,84.04
2022-11-29T13:28:24.090Z,84.05
2022-11-29T13:30:26.260Z,83.81
2022-11-29T13:32:33.733Z,83.84
2022-11-29T13:34:41.625Z,84.15
2022-11-29T13:37:04.736Z,83.57
2022-11-29T13:39:29.195Z,84.69
2022-11-29T13:41:48.216Z,84.46
2022-11-29T13:43:59.792Z,84.35
2022-11-29T13:46:15.498Z,85.46
2022-11-29T13:48:28.943Z,84.71
2022-11-29T13:50:40.875Z,84.53
2022-11-29T13:52:44.816Z,84.61
2022-11-29T13:54:46.529Z,84.98
2022-11-29T13:56:48.228Z,84.76
2022-11-29T13:58:53.662Z,84.82
2022-11-29T14:01:01.328Z,84.26
2022-11-29T14:03:28.208Z,84.99
2022-11-29T14:05:29.653Z,84.92
2022-11-29T14:07:33.084Z,84.62
2022-11-29T14:09:57.792Z,84.50
2022-11-29T14:12:38.129Z,85.12
2022-11-29T14:15:10.724Z,84.89
2022-11-29T14:17:33.868Z,85.40
2022-11-29T14:19:36.950Z,85.24
2022-11-29T14:22:16.815Z,86.17
2022-11-29T14:24:35.209Z,85.84
2022-11-29T14:26:36.686Z,85.78
2022-11-29T14:28:39.585Z,86.25
2022-11-29T14:30:44.021Z,86.33
2022-11-29T14:33:04.165Z,86.54
2022-11-29T14:35:11.461Z,86.53
2022-11-29T14:37:28.102Z,86.61
2022-11-29T14:39:44.388Z,86.97
2022-11-29T14:41:51.413Z,86.99
2022-11-29T14:44:25.756Z,87.16
2022-11-29T14:46:31.236Z,86.68
2022-11-29T14:48:33.888Z,87.20
2022-11-29T14:50:42.091Z,87.82
2022-11-29T14:52:52.800Z,87.41
2022-11-29T14:54:57.470Z,87.47
2022-11-29T15:00:04.795Z,88.25
2022-11-29T15:02:17.539Z,87.92
2022-11-29T15:04:19.141Z,88.58
2022-11-29T15:06:26.728Z,88.83
2022-11-29T15:08:38.324Z,88.06
2022-11-29T15:10:44.475Z,87.75
2022-11-29T15:12:47.161Z,87.52
2022-11-29T15:15:07.869Z,88.02
2022-11-29T15:17:26.243Z,88.12
2022-11-29T15:19:57.654Z,88.70
2022-11-29T15:22:20.474Z,88.60
2022-11-29T15:24:26.781Z,88.27
2022-11-29T15:26:30.980Z,88.72
2022-11-29T15:28:32.454Z,88.01
2022-11-29T15:30:39.542Z,88.13
2022-11-29T15:32:43.387Z,88.23
2022-11-29T15:34:50.376Z,88.38
2022-11-29T15:36:52.030Z,88.15
2022-11-29T15:38:56.262Z,88.74
2022-11-29T15:40:58.416Z,88.50
2022-11-29T15:43:23.279Z,88.55
2022-11-29T15:45:39.116Z,88.71
2022-11-29T15:47:40.536Z,88.66
2022-11-29T15:49:42.016Z,88.35
2022-11-29T15:51:48.248Z,88.43
2022-11-29T15:54:11.346Z,88.80
2022-11-29T15:56:35.708Z,88.67
2022-11-29T15:58:37.387Z,89.18
2022-11-29T16:00:39.615Z,88.81
2022-11-29T16:02:50.222Z,88.86
2022-11-29T16:04:55.428Z,89.02
2022-11-29T16:06:57.699Z,88.47
2022-11-29T16:09:01.296Z,89.45
2022-11-29T16:11:02.794Z,89.22
2022-11-29T16:13:07.848Z,88.90
2022-11-29T16:15:33.624Z,88.93
2022-11-29T16:17:35.126Z,89.18
2022-11-29T16:19:37.879Z,88.55
2022-11-29T16:21:39.934Z,88.88
2022-11-29T16:23:42.740Z,88.92
2022-11-29T16:26:00.900Z,89.45
2022-11-29T16:28:02.413Z,89.21
2022-11-29T16:30:14.954Z,88.77
2022-11-29T16:32:25.828Z,89.22
2022-11-29T16:34:31.161Z,89.07
2022-11-29T16:36:32.727Z,88.87
2022-11-29T16:38:34.218Z,88.95
2022-11-29T16:40:35.638Z,89.39
2022-11-29T16:42:37.173Z,89.55
2022-11-29T16:44:42.186Z,88.96
2022-11-29T16:46:43.678Z,89.33
2022-11-29T16:48:45.113Z,89.55
2022-11-29T16:51:16.068Z,89.25
2022-11-29T16:53:36.788Z,89.10
2022-11-29T16:55:38.150Z,89.40
2022-11-29T16:57:39.911Z,89.41
2022-11-29T16:59:41.414Z,89.42
2022-11-29T17:01:42.971Z,89.49
2022-11-29T17:03:44.465Z,89.27
2022-11-29T17:05:45.961Z,89.29
2022-11-29T17:07:48.139Z,89.31
2022-11-29T17:09:49.697Z,88.99
2022-11-29T17:11:55.874Z,89.38
2022-11-29T17:13:57.397Z,89.65
2022-11-29T17:16:02.283Z,89.57
2022-11-29T17:18:08.431Z,89.76
2022-11-29T17:20:17.024Z,89.03
2022-11-29T17:22:18.790Z,89.25
2022-11-29T17:24:23.948Z,89.01
2022-11-29T17:26:29.128Z,88.80
2022-11-29T17:28:38.159Z,89.17
2022-11-29T17:31:01.218Z,89.45
2022-11-29T17:34:10.008Z,88.74
2022-11-29T17:36:15.587Z,89.30
2022-11-29T17:38:26.166Z,89.15
2022-11-29T17:40:27.712Z,89.36
2022-11-29T17:42:29.539Z,88.84
2022-11-29T17:44:34.033Z,89.05
2022-11-29T17:46:40.044Z,89.11
2022-11-29T17:48:42.862Z,89.47
2022-11-29T17:50:44.391Z,89.04
2022-11-29T17:53:00.050Z,89.43
2022-11-29T17:59:32.871Z,88.54
2022-11-29T18:01:36.074Z,88.67
2022-11-29T18:03:40.196Z,88.53
2022-11-29T18:05:41.571Z,88.82
2022-11-29T18:07:57.629Z,89.10
2022-11-29T18:30:48.765Z,89.25
2022-11-29T18:32:50.232Z,88.97
2022-11-29T18:34:51.640Z,89.13
2022-11-29T18:36:53.019Z,89.25
2022-11-29T18:39:07.233Z,89.58
2022-11-29T18:41:09.533Z,89.41
2022-11-29T18:43:12.304Z,89.15
2022-11-29T18:45:13.753Z,88.86
2022-11-29T18:47:15.167Z,88.69
2022-11-29T18:49:18.156Z,89.29
2022-11-29T18:51:20.242Z,88.89
2022-11-29T18:53:21.705Z,88.84
2022-11-29T18:55:23.103Z,89.58
2022-11-29T18:57:24.485Z,89.21
2022-11-29T18:59:26.028Z,88.84
2022-11-29T19:01:31.066Z,88.74
2022-11-29T19:04:20.353Z,88.71
2022-11-29T19:06:25.319Z,88.86
2022-11-29T19:08:26.818Z,88.54
2022-11-29T19:10:28.454Z,88.87
2022-11-29T19:12:29.910Z,89.06
2022-11-29T19:14:32.299Z,89.16
2022-11-29T19:16:34.589Z,88.81
2022-11-29T19:18:36.032Z,88.99
2022-11-29T19:20:37.395Z,88.49
2022-11-29T19:22:38.802Z,89.25
2022-11-29T19:24:40.171Z,88.85
2022-11-29T19:26:46.811Z,88.86
2022-11-29T19:28:48.649Z,89.21
2022-11-29T19:42:30.488Z,89.08
2022-11-29T19:44:48.243Z,89.20
2022-11-29T19:46:57.040Z,88.84
2022-11-29T19:48:59.626Z,88.98
2022-11-29T19:51:01.069Z,89.38
2022-11-29T19:53:03.266Z,89.11
2022-11-29T19:55:04.943Z,89.94
2022-11-29T19:57:06.314Z,89.65
2022-11-29T19:59:08.394Z,89.15
2022-11-29T20:01:12.877Z,89.38
2022-11-29T20:03:14.676Z,89.78
2022-11-29T20:05:16.206Z,89.04
2022-11-29T20:07:17.611Z,89.04
2022-11-29T20:09:19.299Z,89.57
2022-11-29T20:11:22.932Z,89.19
2022-11-29T20:13:24.348Z,89.68
2022-11-29T20:15:25.801Z,89.57
2022-11-29T20:17:27.151Z,89.26
2022-11-29T20:19:28.731Z,88.95
2022-11-29T20:21:32.569Z,89.04
2022-11-29T20:23:34.685Z,89.83
2022-11-29T20:25:37.122Z,89.19
2022-11-29T20:27:39.359Z,89.58
2022-11-29T20:29:40.722Z,89.17
2022-11-29T20:31:50.217Z,89.16
2022-11-29T20:33:54.546Z,89.20
2022-11-29T20:36:15.921Z,89.62
2022-11-29T20:38:33.317Z,90.20
2022-11-29T20:40:58.230Z,89.81
2022-11-29T20:43:16.281Z,89.75
2022-11-29T20:45:18.566Z,89.34
2022-11-29T20:47:23.490Z,89.69
2022-11-29T20:49:25.158Z,89.83
2022-11-29T20:51:39.141Z,89.99
2022-11-29T20:53:42.825Z,90.18
2022-11-29T20:55:47.905Z,90.55
2022-11-29T20:57:49.881Z,90.11
2022-11-29T20:59:51.234Z,90.84
2022-11-29T21:01:52.697Z,90.02
2022-11-29T21:03:54.258Z,90.17
2022-11-29T21:05:57.197Z,91.16
2022-11-29T21:07:58.653Z,90.69
2022-11-29T21:10:01.712Z,90.83
2022-11-29T21:12:03.750Z,91.02
2022-11-29T21:14:07.909Z,91.10
2022-11-29T21:16:12.015Z,90.58
2022-11-29T21:18:25.386Z,90.79
2022-11-29T21:20:27.724Z,90.55
2022-11-29T21:22:48.275Z,90.22
2022-11-29T21:25:34.245Z,91.12
2022-11-29T21:27:35.979Z,90.91
2022-11-29T21:29:37.760Z,90.81
2022-11-29T21:31:39.536Z,91.23
2022-11-29T21:33:41.276Z,91.12
2022-11-29T21:35:42.754Z,91.30
2022-11-29T21:37:45.476Z,90.82
2022-11-29T21:39:48.888Z,91.02
2022-11-29T21:41:50.280Z,90.92
2022-11-29T21:44:06.219Z,91.23
2022-11-29T21:46:08.949Z,90.75
2022-11-29T21:48:30.502Z,90.99
2022-11-29T21:50:31.959Z,91.62
2022-11-29T21:52:33.429Z,90.99
2022-11-29T21:54:34.898Z,91.34
2022-11-29T21:56:36.301Z,91.45
2022-11-29T21:58:38.860Z,91.02
2022-11-29T22:00:40.262Z,91.43
2022-11-29T22:02:41.701Z,91.50
2022-11-29T22:04:43.248Z,91.06
2022-11-29T22:06:44.673Z,91.04
2022-11-29T22:08:47.227Z,90.66
2022-11-29T22:10:48.703Z,90.89
2022-11-29T22:12:52.452Z,91.31
2022-11-29T22:14:54.223Z,91.49
2022-11-29T22:16:58.008Z,90.90
2022-11-29T22:18:59.391Z,91.30
2022-11-29T22:21:07.088Z,91.11
2022-11-29T22:23:09.618Z,91.03
2022-11-29T22:25:11.048Z,91.17
2022-11-29T22:27:12.467Z,91.60
2022-11-29T22:29:14.786Z,91.84
2022-11-29T22:31:16.349Z,91.77
2022-11-29T22:33:17.781Z,90.86
2022-11-29T22:35:19.154Z,90.79
2022-11-29T22:37:20.537Z,91.36
2022-11-29T22:39:22.264Z,91.20
2022-11-29T22:41:23.669Z,91.07
2022-11-29T22:43:25.011Z,91.04
2022-11-29T22:45:26.588Z,91.52
2022-11-29T22:47:28.009Z,91.27
2022-11-29T22:49:29.944Z,91.06
2022-11-29T22:51:33.936Z,91.03
2022-11-29T22:53:36.720Z,91.13
2022-11-29T22:55:38.094Z,91.71
2022-11-29T22:57:39.473Z,90.93
2022-11-29T22:59:40.833Z,91.38
2022-11-29T23:01:42.533Z,91.42
2022-11-29T23:03:48.056Z,91.86
2022-11-29T23:05:49.436Z,91.18
2022-11-29T23:07:54.888Z,91.20
2022-11-29T23:09:56.370Z,91.51
2022-11-29T23:11:57.797Z,91.76
2022-11-29T23:13:59.138Z,92.16
2022-11-29T23:16:01.433Z,91.51
2022-11-29T23:18:02.948Z,91.74
2022-11-29T23:20:04.980Z,91.73
2022-11-29T23:22:06.389Z,91.85
2022-11-29T23:24:07.945Z,91.68
2022-11-29T23:26:17.517Z,91.83
2022-11-29T23:28:18.932Z,91.44
2022-11-29T23:30:20.327Z,91.70
2022-11-29T23:32:21.715Z,91.44
2022-11-29T23:34:23.183Z,91.57
2022-11-29T23:36:24.677Z,91.47
2022-11-29T23:38:26.170Z,91.49
2022-11-29T23:40:27.613Z,90.95
2022-11-29T23:42:29.018Z,91.72
2022-11-29T23:44:30.447Z,91.47
2022-11-29T23:46:31.983Z,91.03
2022-11-29T23:48:33.399Z,91.12
2022-11-29T23:50:34.967Z,90.94
2022-11-29T23:52:36.545Z,91.23
2022-11-29T23:54:37.943Z,91.15
2022-11-29T23:56:39.326Z,91.24
2022-11-29T23:58:41.302Z,91.74
